Address 0x9101a10e53734a0f90e87d958890b5782cb3850b 1

 
 
Txn Hash Method
Block
From
To
Value [Txn Fee]
0x1a22cc9dbedb295da01df6ea86adce70354ed7ffe6d80d3b327b041cdd729a39Get Reward119643572021-10-21 12:05:3243 days 1 hr ago0x9101a10e53734a0f90e87d958890b5782cb3850bOUT 0x9af9ca29034010e59065e67d6a516a460209e2880 BNB0.000497755
0x0878a78e4cd759bb85b01523c50a9a7f992d21a2bd92aa1e3069959523c04197Allocate Seignio...118191162021-10-16 9:42:4348 days 3 hrs ago0x9101a10e53734a0f90e87d958890b5782cb3850bOUT 0x4501fc749b5c90f2886db4b98a3833a03a3c37b90 BNB0.00078987
0xe049e3595937d23c41e788f71d46b2cbcc60118fd0b656c3b429e2c665d3a32cAllocate Seignio...99848412021-08-13 5:14:20112 days 7 hrs ago0x9101a10e53734a0f90e87d958890b5782cb3850bOUT 0x4501fc749b5c90f2886db4b98a3833a03a3c37b90 BNB0.00078987
0x99dc6e4d5e68e2c644e233debccc3bc6286a6514af15f8d66ef16c2c9cde429dTransfer91616772021-07-14 22:48:48141 days 14 hrs ago0x9101a10e53734a0f90e87d958890b5782cb3850bOUT BUSD-T Stablecoin0 BNB0.000255635
0xe8de3d88e129e27cf9468cb28b89dd2179235d6fed4348fc0eea63d4da70f51bSwap Exact Token...91615812021-07-14 22:44:00141 days 14 hrs ago0x9101a10e53734a0f90e87d958890b5782cb3850bOUT 0x5164b689ebecf0f5186969d410919092620c1f1f0 BNB0.001403995
0xa3c0591b0bb3ad022b9b699f042859bd9e08ab30514fba3914c5912ca3b90a5aSwap Exact Token...91615432021-07-14 22:42:06141 days 14 hrs ago0x9101a10e53734a0f90e87d958890b5782cb3850bOUT 0x5164b689ebecf0f5186969d410919092620c1f1f0 BNB0.001403995
0x9184f7f285ef50a952e894bafba0728ed372f3d6c7c9c80fcc5c43207167c4baSwap Exact Token...91614712021-07-14 22:38:30141 days 14 hrs ago0x9101a10e53734a0f90e87d958890b5782cb3850bOUT 0x5164b689ebecf0f5186969d410919092620c1f1f0 BNB0.001328995
0x715b22646b14a4700902f6f92512e9e95b1f0da4cf3c310f3c5e7a16744e6edeGet Reward91614482021-07-14 22:37:21141 days 14 hrs ago0x9101a10e53734a0f90e87d958890b5782cb3850bOUT 0x9af9ca29034010e59065e67d6a516a460209e2880 BNB0.000497755
0xa276b438bc5c15e20daec48a681bffd7f309c248593c0c8f02a8e6b2855387e9Claim Reward91612402021-07-14 22:26:57141 days 14 hrs ago0x9101a10e53734a0f90e87d958890b5782cb3850bOUT 0x4501fc749b5c90f2886db4b98a3833a03a3c37b90 BNB0.000373115
0xdab81581bb4559a51348922e0e9f8edf95514377c4b79dbb0d859c845754dd26Withdraw91612302021-07-14 22:26:27141 days 14 hrs ago0x9101a10e53734a0f90e87d958890b5782cb3850bOUT 0x4501fc749b5c90f2886db4b98a3833a03a3c37b90 BNB0.000920375
0x15cd5d6301d4ecfd93a62800bb8964c04d529b89b8f5b9eafbef188c06737df0Transfer90263422021-07-10 6:00:46146 days 7 hrs ago0x9101a10e53734a0f90e87d958890b5782cb3850bOUT BUSD-T Stablecoin0 BNB0.000180635
0xe2bcbc9bb9d9d48093399e5a24ee31e682abc77fdee7fc531ce66fbf081770c9Swap Exact Token...90262622021-07-10 5:56:46146 days 7 hrs ago0x9101a10e53734a0f90e87d958890b5782cb3850bOUT 0x5164b689ebecf0f5186969d410919092620c1f1f0 BNB0.001329055
0xd7685dc8f39f8ff3e305142282c2f9c0db206a96a49834b08b78c6ae72d04f8fSwap Exact Token...90259142021-07-10 5:39:22146 days 7 hrs ago0x9101a10e53734a0f90e87d958890b5782cb3850bOUT 0x5164b689ebecf0f5186969d410919092620c1f1f0 BNB0.001404745
0x2e7fe5596813915accdcd6273857a0d2006c4aa992c6b473e0335c13acdc8f34Swap Exact Token...90258792021-07-10 5:37:37146 days 7 hrs ago0x9101a10e53734a0f90e87d958890b5782cb3850bOUT 0x5164b689ebecf0f5186969d410919092620c1f1f0 BNB0.001404745
0xf0005ea94841990a93a9c8e42caa42a763a08440893616774494735521d1fe14Swap Exact Token...90258072021-07-10 5:34:01146 days 7 hrs ago0x9101a10e53734a0f90e87d958890b5782cb3850bOUT 0x5164b689ebecf0f5186969d410919092620c1f1f0 BNB0.001404745
0x40de88a63941b259afee2b402847a61ed19e0dc7875548625a708e840c8a4c92Swap Exact Token...90257912021-07-10 5:33:13146 days 7 hrs ago0x9101a10e53734a0f90e87d958890b5782cb3850bOUT 0x5164b689ebecf0f5186969d410919092620c1f1f0 BNB0.001404745
0xfc42b7f98234a6c96e48dae7911a939bdc97452ec905eedfb15ad56c560a026fSwap Exact Token...90257682021-07-10 5:32:04146 days 7 hrs ago0x9101a10e53734a0f90e87d958890b5782cb3850bOUT 0x5164b689ebecf0f5186969d410919092620c1f1f0 BNB0.001404745
0xbb87b8875e1fb44ba6e21ec1dbb04770221482f081b3d186fb8e6c23259be6edSwap Exact Token...90257462021-07-10 5:30:58146 days 7 hrs ago0x9101a10e53734a0f90e87d958890b5782cb3850bOUT 0x5164b689ebecf0f5186969d410919092620c1f1f0 BNB0.001404745
0x4fa3d0762fe5bda88980493f688645e85ce6493d9033fdf9c03deb93aebd1822Swap Exact Token...90256422021-07-10 5:25:46146 days 7 hrs ago0x9101a10e53734a0f90e87d958890b5782cb3850bOUT 0x5164b689ebecf0f5186969d410919092620c1f1f0 BNB0.001404805
0x3f296b6b2bec8b17479bda496d84458459a59001bfe4e21b077f9d7597a0c1f4Swap Exact Token...90256082021-07-10 5:24:04146 days 7 hrs ago0x9101a10e53734a0f90e87d958890b5782cb3850bOUT 0x5164b689ebecf0f5186969d410919092620c1f1f0 BNB0.001404805
0x49121450d2f76c9c29b99e0555a829862dbf00fd3acd1e8ebd42aa90f7a11aceGet Reward90254902021-07-10 5:18:10146 days 7 hrs ago0x9101a10e53734a0f90e87d958890b5782cb3850bOUT 0x9af9ca29034010e59065e67d6a516a460209e2880 BNB0.000422755
0x9c2ccfbca2dc817feecd70cd3bf62e7f5d8056e0ec672c6100569d2139511cceGet Reward89948322021-07-09 3:44:57147 days 9 hrs ago0x9101a10e53734a0f90e87d958890b5782cb3850bOUT 0x9af9ca29034010e59065e67d6a516a460209e2880 BNB0.000497755
0x8519c3865ecfa9b7f4b3a4c513cc36688c3527741b07daec3885c9f0cf26d19aTransfer89363702021-07-07 3:00:07149 days 10 hrs ago0x9101a10e53734a0f90e87d958890b5782cb3850bOUT BUSD-T Stablecoin0 BNB0.000255635
0x9f43f5963943a7a81f072881ccea9b0a0d26b2d884cf7fb0e67d134c8dad89f1Swap Exact Token...89352042021-07-07 2:01:49149 days 11 hrs ago0x9101a10e53734a0f90e87d958890b5782cb3850bOUT 0x5164b689ebecf0f5186969d410919092620c1f1f0 BNB0.001328995
0x20e6b23e249645cdda448ee6b333b4bac60b16269f59d4b9f7332575b050d975Get Reward89351752021-07-07 2:00:22149 days 11 hrs ago0x9101a10e53734a0f90e87d958890b5782cb3850bOUT 0x9af9ca29034010e59065e67d6a516a460209e2880 BNB0.000422755
[ Download CSV Export 
Latest 4 internal transactions
Parent Txn Hash Block From To Value
0x68c9d07460462bfe408ba95c2e5abd1775f13cd7e4d8b6f2627805be50b0919d81051482021-06-08 1:42:44178 days 11 hrs ago 0x7c533e7f924efe81dff40a8116566b0f0b1fe7570x9101a10e53734a0f90e87d958890b5782cb3850b1.3 BNB
0x472632fc00cd697c7be243e1b56b53239ad2afcc690429729c25d608b5f7c2b579955992021-06-04 6:15:53182 days 6 hrs ago 0x7c533e7f924efe81dff40a8116566b0f0b1fe7570x9101a10e53734a0f90e87d958890b5782cb3850b0.2 BNB
0x4e9cfb62d4c99e07c678d9f08ed62b263f0eb986efc170c90fce19159d51198f79628222021-06-03 2:48:58183 days 10 hrs ago 0x7c533e7f924efe81dff40a8116566b0f0b1fe7570x9101a10e53734a0f90e87d958890b5782cb3850b1 BNB
0xfd921c544f382bf3a7d0a7deea6b9c304ee99083efeb6d464fb089d6cd44005b79424832021-06-02 9:48:29184 days 3 hrs ago PancakeSwap: Router v20x9101a10e53734a0f90e87d958890b5782cb3850b0.005392101275010572 BNB
[ Download CSV Export 
Loading

Contract Name:
0 BNB

Compiler Version
0

Optimization Enabled:
0 BNB

Other Settings:
-NA-
Block Transaction Gas Used Reward
Age Block Fee Address BC Fee Address Voting Power Jailed Incoming
Block Uncle Number Difficulty Gas Used Reward
Loading
Loading
Make sure to use the "Vote Down" button for any spammy posts, and the "Vote Up" for interesting conversations.